sensor_id;sensor_type;location;lat;lon;timestamp;temperature;humidity
23683;DHT22;24897;53.514;10.482;2023-08-24T00:02:13;20.00;99.90
23683;DHT22;24897;53.514;10.482;2023-08-24T00:04:57;20.00;99.90
23683;DHT22;24897;53.514;10.482;2023-08-24T00:07:41;19.90;99.90
23683;DHT22;24897;53.514;10.482;2023-08-24T00:10:25;19.90;99.90
23683;DHT22;24897;53.514;10.482;2023-08-24T00:13:10;19.80;99.90
23683;DHT22;24897;53.514;10.482;2023-08-24T00:15:54;19.80;99.90
23683;DHT22;24897;53.514;10.482;2023-08-24T00:18:38;19.80;99.90
23683;DHT22;24897;53.514;10.482;2023-08-24T00:21:22;19.80;99.90
23683;DHT22;24897;53.514;10.482;2023-08-24T00:24:08;19.70;99.90
23683;DHT22;24897;53.514;10.482;2023-08-24T00:26:52;19.70;99.90
23683;DHT22;24897;53.514;10.482;2023-08-24T00:29:37;19.60;99.90
23683;DHT22;24897;53.514;10.482;2023-08-24T00:32:22;19.60;99.90
23683;DHT22;24897;53.514;10.482;2023-08-24T00:35:08;19.50;99.90
23683;DHT22;24897;53.514;10.482;2023-08-24T00:37:54;19.50;99.90
23683;DHT22;24897;53.514;10.482;2023-08-24T00:40:38;19.40;99.90
23683;DHT22;24897;53.514;10.482;2023-08-24T00:43:28;19.50;99.90
23683;DHT22;24897;53.514;10.482;2023-08-24T00:46:12;19.50;99.90
23683;DHT22;24897;53.514;10.482;2023-08-24T00:48:57;19.40;99.90
23683;DHT22;24897;53.514;10.482;2023-08-24T00:51:41;19.40;99.90
23683;DHT22;24897;53.514;10.482;2023-08-24T00:54:25;19.40;99.90
23683;DHT22;24897;53.514;10.482;2023-08-24T00:57:10;19.30;99.90
23683;DHT22;24897;53.514;10.482;2023-08-24T00:59:56;19.30;99.90
23683;DHT22;24897;53.514;10.482;2023-08-24T01:02:40;19.30;99.90
23683;DHT22;24897;53.514;10.482;2023-08-24T01:05:24;19.30;99.90
23683;DHT22;24897;53.514;10.482;2023-08-24T01:08:08;19.30;99.90
23683;DHT22;24897;53.514;10.482;2023-08-24T01:11:09;19.30;99.90
23683;DHT22;24897;53.514;10.482;2023-08-24T01:14:08;19.20;99.90
23683;DHT22;24897;53.514;10.482;2023-08-24T01:16:58;19.20;99.90
23683;DHT22;24897;53.514;10.482;2023-08-24T01:19:44;19.20;99.90
23683;DHT22;24897;53.514;10.482;2023-08-24T01:22:33;19.30;99.90
23683;DHT22;24897;53.514;10.482;2023-08-24T01:28:13;19.30;99.90
23683;DHT22;24897;53.514;10.482;2023-08-24T01:30:58;19.30;99.90
23683;DHT22;24897;53.514;10.482;2023-08-24T01:33:43;19.30;99.90
23683;DHT22;24897;53.514;10.482;2023-08-24T01:36:28;19.30;99.90
23683;DHT22;24897;53.514;10.482;2023-08-24T01:39:28;19.20;99.90
23683;DHT22;24897;53.514;10.482;2023-08-24T01:42:19;19.20;99.90
23683;DHT22;24897;53.514;10.482;2023-08-24T01:45:05;19.20;99.90
23683;DHT22;24897;53.514;10.482;2023-08-24T01:47:52;19.20;99.90
23683;DHT22;24897;53.514;10.482;2023-08-24T01:50:38;19.20;99.90
23683;DHT22;24897;53.514;10.482;2023-08-24T01:53:22;19.30;99.90
23683;DHT22;24897;53.514;10.482;2023-08-24T01:56:10;19.30;99.90
23683;DHT22;24897;53.514;10.482;2023-08-24T01:58:55;19.30;99.90
23683;DHT22;24897;53.514;10.482;2023-08-24T02:01:40;19.30;99.90
23683;DHT22;24897;53.514;10.482;2023-08-24T02:04:25;19.30;99.90
23683;DHT22;24897;53.514;10.482;2023-08-24T02:07:09;19.30;99.90
23683;DHT22;24897;53.514;10.482;2023-08-24T02:09:53;19.20;99.90
23683;DHT22;24897;53.514;10.482;2023-08-24T02:12:37;19.20;99.90
23683;DHT22;24897;53.514;10.482;2023-08-24T02:15:21;19.10;99.90
23683;DHT22;24897;53.514;10.482;2023-08-24T02:18:06;19.00;99.90
23683;DHT22;24897;53.514;10.482;2023-08-24T02:20:51;19.00;99.90
23683;DHT22;24897;53.514;10.482;2023-08-24T02:23:35;18.90;99.90
23683;DHT22;24897;53.514;10.482;2023-08-24T02:26:19;18.80;99.90
23683;DHT22;24897;53.514;10.482;2023-08-24T02:29:04;18.70;99.90
23683;DHT22;24897;53.514;10.482;2023-08-24T02:31:51;18.60;99.90
23683;DHT22;24897;53.514;10.482;2023-08-24T02:34:35;18.50;99.90
23683;DHT22;24897;53.514;10.482;2023-08-24T02:37:20;18.50;99.90
23683;DHT22;24897;53.514;10.482;2023-08-24T02:40:05;18.50;99.90
23683;DHT22;24897;53.514;10.482;2023-08-24T02:42:50;18.60;99.90
23683;DHT22;24897;53.514;10.482;2023-08-24T02:45:34;18.60;99.90
23683;DHT22;24897;53.514;10.482;2023-08-24T02:48:18;18.50;99.90
23683;DHT22;24897;53.514;10.482;2023-08-24T02:51:04;18.50;99.90
23683;DHT22;24897;53.514;10.482;2023-08-24T02:53:49;18.40;99.90
23683;DHT22;24897;53.514;10.482;2023-08-24T02:56:33;18.40;99.90
23683;DHT22;24897;53.514;10.482;2023-08-24T02:59:17;18.40;99.90
23683;DHT22;24897;53.514;10.482;2023-08-24T03:02:02;18.30;99.90
23683;DHT22;24897;53.514;10.482;2023-08-24T03:04:47;18.30;99.90
23683;DHT22;24897;53.514;10.482;2023-08-24T03:07:31;18.20;99.90
23683;DHT22;24897;53.514;10.482;2023-08-24T03:10:15;18.10;99.90
23683;DHT22;24897;53.514;10.482;2023-08-24T03:12:59;18.10;99.90
23683;DHT22;24897;53.514;10.482;2023-08-24T03:15:43;18.10;99.90
23683;DHT22;24897;53.514;10.482;2023-08-24T03:18:28;18.10;99.90
23683;DHT22;24897;53.514;10.482;2023-08-24T03:21:12;18.10;99.90
23683;DHT22;24897;53.514;10.482;2023-08-24T03:23:56;18.10;99.90
23683;DHT22;24897;53.514;10.482;2023-08-24T03:26:40;18.10;99.90
23683;DHT22;24897;53.514;10.482;2023-08-24T03:29:24;18.10;99.90
23683;DHT22;24897;53.514;10.482;2023-08-24T03:32:08;18.10;99.90
23683;DHT22;24897;53.514;10.482;2023-08-24T03:34:58;18.10;99.90
23683;DHT22;24897;53.514;10.482;2023-08-24T03:37:42;18.10;99.90
23683;DHT22;24897;53.514;10.482;2023-08-24T03:40:26;18.10;99.90
23683;DHT22;24897;53.514;10.482;2023-08-24T03:43:11;18.10;99.90
23683;DHT22;24897;53.514;10.482;2023-08-24T03:45:55;18.00;99.90
23683;DHT22;24897;53.514;10.482;2023-08-24T03:48:39;17.90;99.90
23683;DHT22;24897;53.514;10.482;2023-08-24T03:51:24;17.80;99.90
23683;DHT22;24897;53.514;10.482;2023-08-24T03:54:08;17.80;99.90
23683;DHT22;24897;53.514;10.482;2023-08-24T03:56:52;17.80;99.90
23683;DHT22;24897;53.514;10.482;2023-08-24T03:59:36;17.80;99.90
23683;DHT22;24897;53.514;10.482;2023-08-24T04:02:20;17.70;99.90
23683;DHT22;24897;53.514;10.482;2023-08-24T04:05:04;17.70;99.90
23683;DHT22;24897;53.514;10.482;2023-08-24T04:07:48;17.60;99.90
23683;DHT22;24897;53.514;10.482;2023-08-24T04:10:33;17.50;99.90
23683;DHT22;24897;53.514;10.482;2023-08-24T04:13:17;17.50;99.90
23683;DHT22;24897;53.514;10.482;2023-08-24T04:16:01;17.50;99.90
23683;DHT22;24897;53.514;10.482;2023-08-24T04:18:47;17.40;99.90
23683;DHT22;24897;53.514;10.482;2023-08-24T04:21:31;17.30;99.90
23683;DHT22;24897;53.514;10.482;2023-08-24T04:24:16;17.30;99.90
23683;DHT22;24897;53.514;10.482;2023-08-24T04:27:00;17.30;99.90
23683;DHT22;24897;53.514;10.482;2023-08-24T04:29:44;17.30;99.90
23683;DHT22;24897;53.514;10.482;2023-08-24T04:32:28;17.40;99.90
23683;DHT22;24897;53.514;10.482;2023-08-24T04:35:12;17.40;99.90
23683;DHT22;24897;53.514;10.482;2023-08-24T04:37:57;17.50;99.90
23683;DHT22;24897;53.514;10.482;2023-08-24T04:40:59;17.50;99.90
23683;DHT22;24897;53.514;10.482;2023-08-24T04:43:43;17.50;99.90
23683;DHT22;24897;53.514;10.482;2023-08-24T04:46:28;17.50;99.90
23683;DHT22;24897;53.514;10.482;2023-08-24T04:49:12;17.60;99.90
23683;DHT22;24897;53.514;10.482;2023-08-24T04:51:56;17.70;99.90
23683;DHT22;24897;53.514;10.482;2023-08-24T04:54:40;17.80;99.90
23683;DHT22;24897;53.514;10.482;2023-08-24T04:57:25;17.90;99.90
23683;DHT22;24897;53.514;10.482;2023-08-24T05:00:09;18.00;99.90
23683;DHT22;24897;53.514;10.482;2023-08-24T05:02:59;18.30;99.90
23683;DHT22;24897;53.514;10.482;2023-08-24T05:05:44;18.40;99.90
23683;DHT22;24897;53.514;10.482;2023-08-24T05:08:29;18.50;99.90
23683;DHT22;24897;53.514;10.482;2023-08-24T05:11:17;18.50;99.90
23683;DHT22;24897;53.514;10.482;2023-08-24T05:14:01;18.50;99.90
23683;DHT22;24897;53.514;10.482;2023-08-24T05:16:45;18.60;99.90
23683;DHT22;24897;53.514;10.482;2023-08-24T05:19:30;18.70;99.90
23683;DHT22;24897;53.514;10.482;2023-08-24T05:22:14;18.70;99.90
23683;DHT22;24897;53.514;10.482;2023-08-24T05:24:58;18.70;99.90
23683;DHT22;24897;53.514;10.482;2023-08-24T05:27:42;18.80;99.90
23683;DHT22;24897;53.514;10.482;2023-08-24T05:30:26;18.90;99.90
23683;DHT22;24897;53.514;10.482;2023-08-24T05:33:13;19.00;99.90
23683;DHT22;24897;53.514;10.482;2023-08-24T05:35:57;19.10;99.90
23683;DHT22;24897;53.514;10.482;2023-08-24T05:38:42;19.10;99.90
23683;DHT22;24897;53.514;10.482;2023-08-24T05:41:31;19.20;99.90
23683;DHT22;24897;53.514;10.482;2023-08-24T05:44:15;19.20;99.90
23683;DHT22;24897;53.514;10.482;2023-08-24T05:47:01;19.20;99.90
23683;DHT22;24897;53.514;10.482;2023-08-24T05:49:45;19.20;99.90
23683;DHT22;24897;53.514;10.482;2023-08-24T05:52:29;19.10;99.90
23683;DHT22;24897;53.514;10.482;2023-08-24T05:55:13;19.20;99.90
23683;DHT22;24897;53.514;10.482;2023-08-24T05:57:58;19.20;99.90
23683;DHT22;24897;53.514;10.482;2023-08-24T06:00:41;19.30;99.90
23683;DHT22;24897;53.514;10.482;2023-08-24T06:03:26;19.30;99.90
23683;DHT22;24897;53.514;10.482;2023-08-24T06:06:10;19.20;99.90
23683;DHT22;24897;53.514;10.482;2023-08-24T06:08:54;19.10;99.90
23683;DHT22;24897;53.514;10.482;2023-08-24T06:11:39;19.20;99.90
23683;DHT22;24897;53.514;10.482;2023-08-24T06:14:24;19.20;99.90
23683;DHT22;24897;53.514;10.482;2023-08-24T06:17:08;19.10;99.90
23683;DHT22;24897;53.514;10.482;2023-08-24T06:19:53;19.10;99.90
23683;DHT22;24897;53.514;10.482;2023-08-24T06:22:37;19.30;99.90
23683;DHT22;24897;53.514;10.482;2023-08-24T06:25:22;19.40;99.90
23683;DHT22;24897;53.514;10.482;2023-08-24T06:28:07;19.50;99.90
23683;DHT22;24897;53.514;10.482;2023-08-24T06:30:54;19.60;99.90
23683;DHT22;24897;53.514;10.482;2023-08-24T06:33:39;19.60;99.90
23683;DHT22;24897;53.514;10.482;2023-08-24T06:36:23;19.70;99.90
23683;DHT22;24897;53.514;10.482;2023-08-24T06:39:08;19.60;99.90
23683;DHT22;24897;53.514;10.482;2023-08-24T06:41:52;19.80;99.90
23683;DHT22;24897;53.514;10.482;2023-08-24T06:44:36;20.00;99.90
23683;DHT22;24897;53.514;10.482;2023-08-24T06:47:21;19.90;99.90
23683;DHT22;24897;53.514;10.482;2023-08-24T06:50:06;20.00;99.90
23683;DHT22;24897;53.514;10.482;2023-08-24T06:52:50;20.10;99.90
23683;DHT22;24897;53.514;10.482;2023-08-24T06:55:34;20.20;99.90
23683;DHT22;24897;53.514;10.482;2023-08-24T06:58:18;20.30;99.90
23683;DHT22;24897;53.514;10.482;2023-08-24T07:01:02;20.30;99.90
23683;DHT22;24897;53.514;10.482;2023-08-24T07:03:49;20.40;99.90
23683;DHT22;24897;53.514;10.482;2023-08-24T07:06:34;20.50;99.90
23683;DHT22;24897;53.514;10.482;2023-08-24T07:09:19;20.60;99.90
23683;DHT22;24897;53.514;10.482;2023-08-24T07:12:03;20.80;99.90
23683;DHT22;24897;53.514;10.482;2023-08-24T07:14:50;20.90;99.90
23683;DHT22;24897;53.514;10.482;2023-08-24T07:17:34;20.80;99.90
23683;DHT22;24897;53.514;10.482;2023-08-24T07:20:18;20.90;99.90
23683;DHT22;24897;53.514;10.482;2023-08-24T07:23:03;20.90;99.90
23683;DHT22;24897;53.514;10.482;2023-08-24T07:25:48;20.80;99.90
23683;DHT22;24897;53.514;10.482;2023-08-24T07:28:32;20.90;99.90
23683;DHT22;24897;53.514;10.482;2023-08-24T07:31:16;20.90;99.90
23683;DHT22;24897;53.514;10.482;2023-08-24T07:34:00;21.20;99.90
23683;DHT22;24897;53.514;10.482;2023-08-24T07:36:44;21.50;99.90
23683;DHT22;24897;53.514;10.482;2023-08-24T07:39:31;21.80;99.90
23683;DHT22;24897;53.514;10.482;2023-08-24T07:42:15;22.10;99.90
23683;DHT22;24897;53.514;10.482;2023-08-24T07:45:00;22.40;99.90
23683;DHT22;24897;53.514;10.482;2023-08-24T07:47:44;22.60;99.90
23683;DHT22;24897;53.514;10.482;2023-08-24T07:50:28;23.10;99.90
23683;DHT22;24897;53.514;10.482;2023-08-24T07:53:13;24.00;99.90
23683;DHT22;24897;53.514;10.482;2023-08-24T07:55:58;24.20;99.90
23683;DHT22;24897;53.514;10.482;2023-08-24T07:58:42;24.20;99.90
23683;DHT22;24897;53.514;10.482;2023-08-24T08:01:26;24.80;99.90
23683;DHT22;24897;53.514;10.482;2023-08-24T08:04:10;25.00;99.90
23683;DHT22;24897;53.514;10.482;2023-08-24T08:06:54;25.70;99.90
23683;DHT22;24897;53.514;10.482;2023-08-24T08:09:40;26.30;99.90
23683;DHT22;24897;53.514;10.482;2023-08-24T08:12:24;26.60;99.90
23683;DHT22;24897;53.514;10.482;2023-08-24T08:15:08;26.60;99.90
23683;DHT22;24897;53.514;10.482;2023-08-24T08:17:53;26.80;99.90
23683;DHT22;24897;53.514;10.482;2023-08-24T08:20:39;26.60;99.90
23683;DHT22;24897;53.514;10.482;2023-08-24T08:23:23;26.30;99.90
23683;DHT22;24897;53.514;10.482;2023-08-24T08:26:10;26.20;99.90
23683;DHT22;24897;53.514;10.482;2023-08-24T08:28:54;26.30;99.90
23683;DHT22;24897;53.514;10.482;2023-08-24T08:31:38;26.60;99.90
23683;DHT22;24897;53.514;10.482;2023-08-24T08:34:22;26.60;99.90
23683;DHT22;24897;53.514;10.482;2023-08-24T08:37:06;26.90;99.90
23683;DHT22;24897;53.514;10.482;2023-08-24T08:39:50;27.40;99.90
23683;DHT22;24897;53.514;10.482;2023-08-24T08:42:35;27.70;99.90
23683;DHT22;24897;53.514;10.482;2023-08-24T08:45:27;27.50;99.90
23683;DHT22;24897;53.514;10.482;2023-08-24T08:48:12;27.50;99.90
23683;DHT22;24897;53.514;10.482;2023-08-24T08:50:57;27.60;99.90
23683;DHT22;24897;53.514;10.482;2023-08-24T08:53:41;27.40;99.90
23683;DHT22;24897;53.514;10.482;2023-08-24T08:56:25;27.50;99.90
23683;DHT22;24897;53.514;10.482;2023-08-24T08:59:12;27.50;99.90
23683;DHT22;24897;53.514;10.482;2023-08-24T09:01:58;27.70;99.90
23683;DHT22;24897;53.514;10.482;2023-08-24T09:04:45;27.80;99.90
23683;DHT22;24897;53.514;10.482;2023-08-24T09:07:29;27.90;99.90
23683;DHT22;24897;53.514;10.482;2023-08-24T09:10:13;28.10;99.90
23683;DHT22;24897;53.514;10.482;2023-08-24T09:12:57;28.10;99.90
23683;DHT22;24897;53.514;10.482;2023-08-24T09:15:41;28.10;99.90
23683;DHT22;24897;53.514;10.482;2023-08-24T09:18:37;28.40;99.90
23683;DHT22;24897;53.514;10.482;2023-08-24T09:21:23;27.90;99.90
23683;DHT22;24897;53.514;10.482;2023-08-24T09:24:08;28.00;99.90
23683;DHT22;24897;53.514;10.482;2023-08-24T09:26:53;28.10;99.90
23683;DHT22;24897;53.514;10.482;2023-08-24T09:29:37;27.90;99.90
23683;DHT22;24897;53.514;10.482;2023-08-24T09:32:28;27.70;99.90
23683;DHT22;24897;53.514;10.482;2023-08-24T09:35:12;27.70;99.90
23683;DHT22;24897;53.514;10.482;2023-08-24T09:37:57;27.60;99.90
23683;DHT22;24897;53.514;10.482;2023-08-24T09:40:45;27.70;99.90
23683;DHT22;24897;53.514;10.482;2023-08-24T09:43:31;27.60;99.90
23683;DHT22;24897;53.514;10.482;2023-08-24T09:46:19;27.60;99.90
23683;DHT22;24897;53.514;10.482;2023-08-24T09:49:06;27.90;99.90
23683;DHT22;24897;53.514;10.482;2023-08-24T09:51:52;28.20;99.90
23683;DHT22;24897;53.514;10.482;2023-08-24T09:54:40;28.50;99.90
23683;DHT22;24897;53.514;10.482;2023-08-24T09:57:25;28.40;99.90
23683;DHT22;24897;53.514;10.482;2023-08-24T10:00:10;27.40;99.90
23683;DHT22;24897;53.514;10.482;2023-08-24T10:02:55;27.50;99.90
23683;DHT22;24897;53.514;10.482;2023-08-24T10:05:40;27.80;99.90
23683;DHT22;24897;53.514;10.482;2023-08-24T10:08:27;28.00;99.90
23683;DHT22;24897;53.514;10.482;2023-08-24T10:11:17;27.90;99.90
23683;DHT22;24897;53.514;10.482;2023-08-24T10:14:12;28.10;99.90
23683;DHT22;24897;53.514;10.482;2023-08-24T10:16:57;27.50;99.90
23683;DHT22;24897;53.514;10.482;2023-08-24T10:19:42;27.50;99.90
23683;DHT22;24897;53.514;10.482;2023-08-24T10:22:29;27.90;99.90
23683;DHT22;24897;53.514;10.482;2023-08-24T10:25:16;28.50;99.90
23683;DHT22;24897;53.514;10.482;2023-08-24T10:28:00;29.00;99.90
23683;DHT22;24897;53.514;10.482;2023-08-24T10:30:46;29.00;99.90
23683;DHT22;24897;53.514;10.482;2023-08-24T10:33:32;29.10;99.90
23683;DHT22;24897;53.514;10.482;2023-08-24T10:36:18;29.30;99.90
23683;DHT22;24897;53.514;10.482;2023-08-24T10:39:03;29.40;99.90
23683;DHT22;24897;53.514;10.482;2023-08-24T10:41:52;29.90;99.90
23683;DHT22;24897;53.514;10.482;2023-08-24T10:44:38;29.40;99.90
23683;DHT22;24897;53.514;10.482;2023-08-24T10:47:23;29.20;99.90
23683;DHT22;24897;53.514;10.482;2023-08-24T10:50:09;29.10;99.90
23683;DHT22;24897;53.514;10.482;2023-08-24T10:52:54;29.10;99.90
23683;DHT22;24897;53.514;10.482;2023-08-24T10:55:38;28.70;99.90
23683;DHT22;24897;53.514;10.482;2023-08-24T10:58:22;28.70;99.90
23683;DHT22;24897;53.514;10.482;2023-08-24T11:01:07;29.20;99.90
23683;DHT22;24897;53.514;10.482;2023-08-24T11:03:58;29.10;99.90
23683;DHT22;24897;53.514;10.482;2023-08-24T11:07:11;29.20;99.90
23683;DHT22;24897;53.514;10.482;2023-08-24T11:10:07;29.50;99.90
23683;DHT22;24897;53.514;10.482;2023-08-24T11:13:04;29.20;99.90
23683;DHT22;24897;53.514;10.482;2023-08-24T11:15:51;28.60;99.90
23683;DHT22;24897;53.514;10.482;2023-08-24T11:18:39;27.90;99.90
23683;DHT22;24897;53.514;10.482;2023-08-24T11:21:23;27.10;99.90
23683;DHT22;24897;53.514;10.482;2023-08-24T11:24:09;27.80;99.90
23683;DHT22;24897;53.514;10.482;2023-08-24T11:26:55;28.60;99.90
23683;DHT22;24897;53.514;10.482;2023-08-24T11:29:39;28.90;99.90
23683;DHT22;24897;53.514;10.482;2023-08-24T11:32:23;28.70;99.90
23683;DHT22;24897;53.514;10.482;2023-08-24T11:35:10;28.70;99.90
23683;DHT22;24897;53.514;10.482;2023-08-24T11:37:56;29.10;99.90
23683;DHT22;24897;53.514;10.482;2023-08-24T11:40:40;29.70;99.90
23683;DHT22;24897;53.514;10.482;2023-08-24T11:43:25;29.90;99.90
23683;DHT22;24897;53.514;10.482;2023-08-24T11:46:13;30.00;99.90
23683;DHT22;24897;53.514;10.482;2023-08-24T11:48:59;29.60;99.90
23683;DHT22;24897;53.514;10.482;2023-08-24T11:51:44;29.20;99.90
23683;DHT22;24897;53.514;10.482;2023-08-24T11:54:28;29.10;99.90
23683;DHT22;24897;53.514;10.482;2023-08-24T11:57:12;28.90;99.90
23683;DHT22;24897;53.514;10.482;2023-08-24T11:59:57;28.50;99.90
23683;DHT22;24897;53.514;10.482;2023-08-24T12:02:41;28.10;99.90
23683;DHT22;24897;53.514;10.482;2023-08-24T12:05:26;28.10;99.90
23683;DHT22;24897;53.514;10.482;2023-08-24T12:08:11;28.10;99.90
23683;DHT22;24897;53.514;10.482;2023-08-24T12:10:56;28.50;99.90
23683;DHT22;24897;53.514;10.482;2023-08-24T12:13:49;28.50;99.90
23683;DHT22;24897;53.514;10.482;2023-08-24T12:16:33;28.70;99.90
23683;DHT22;24897;53.514;10.482;2023-08-24T12:19:21;28.70;99.90
23683;DHT22;24897;53.514;10.482;2023-08-24T12:22:05;28.80;99.90
23683;DHT22;24897;53.514;10.482;2023-08-24T12:24:49;28.90;99.90
23683;DHT22;24897;53.514;10.482;2023-08-24T12:27:33;29.10;99.90
23683;DHT22;24897;53.514;10.482;2023-08-24T12:30:21;28.80;99.90
23683;DHT22;24897;53.514;10.482;2023-08-24T12:33:05;28.50;99.90
23683;DHT22;24897;53.514;10.482;2023-08-24T12:35:50;28.50;99.90
23683;DHT22;24897;53.514;10.482;2023-08-24T12:38:35;28.70;99.90
23683;DHT22;24897;53.514;10.482;2023-08-24T12:41:19;28.70;99.90
23683;DHT22;24897;53.514;10.482;2023-08-24T12:44:04;29.00;99.90
23683;DHT22;24897;53.514;10.482;2023-08-24T12:46:52;29.20;99.90
23683;DHT22;24897;53.514;10.482;2023-08-24T12:49:36;29.20;99.90
23683;DHT22;24897;53.514;10.482;2023-08-24T12:52:21;29.10;99.90
23683;DHT22;24897;53.514;10.482;2023-08-24T12:55:06;29.50;99.90
23683;DHT22;24897;53.514;10.482;2023-08-24T12:57:50;29.60;99.90
23683;DHT22;24897;53.514;10.482;2023-08-24T13:00:34;29.50;99.90
23683;DHT22;24897;53.514;10.482;2023-08-24T13:03:18;29.10;99.90
23683;DHT22;24897;53.514;10.482;2023-08-24T13:06:03;28.90;99.90
23683;DHT22;24897;53.514;10.482;2023-08-24T13:08:48;28.90;99.90
23683;DHT22;24897;53.514;10.482;2023-08-24T13:11:32;29.00;99.90
23683;DHT22;24897;53.514;10.482;2023-08-24T13:14:16;29.10;99.90
23683;DHT22;24897;53.514;10.482;2023-08-24T13:17:00;29.00;99.90
23683;DHT22;24897;53.514;10.482;2023-08-24T13:19:44;29.10;99.90
23683;DHT22;24897;53.514;10.482;2023-08-24T13:22:29;29.10;99.90
23683;DHT22;24897;53.514;10.482;2023-08-24T13:25:13;29.20;99.90
23683;DHT22;24897;53.514;10.482;2023-08-24T13:27:57;29.30;99.90
23683;DHT22;24897;53.514;10.482;2023-08-24T13:30:41;29.50;99.90
23683;DHT22;24897;53.514;10.482;2023-08-24T13:33:26;29.40;99.90
23683;DHT22;24897;53.514;10.482;2023-08-24T13:36:11;29.50;99.90
23683;DHT22;24897;53.514;10.482;2023-08-24T13:38:55;29.50;99.90
23683;DHT22;24897;53.514;10.482;2023-08-24T13:41:39;29.60;99.90
23683;DHT22;24897;53.514;10.482;2023-08-24T13:44:23;29.70;99.90
23683;DHT22;24897;53.514;10.482;2023-08-24T13:47:08;29.50;99.90
23683;DHT22;24897;53.514;10.482;2023-08-24T13:49:52;29.40;99.90
23683;DHT22;24897;53.514;10.482;2023-08-24T13:52:36;29.10;99.90
23683;DHT22;24897;53.514;10.482;2023-08-24T13:55:20;28.90;99.90
23683;DHT22;24897;53.514;10.482;2023-08-24T13:58:04;28.70;99.90
23683;DHT22;24897;53.514;10.482;2023-08-24T14:00:55;28.50;99.90
23683;DHT22;24897;53.514;10.482;2023-08-24T14:03:39;28.30;99.90
23683;DHT22;24897;53.514;10.482;2023-08-24T14:06:31;28.20;99.90
23683;DHT22;24897;53.514;10.482;2023-08-24T14:09:15;28.20;99.90
23683;DHT22;24897;53.514;10.482;2023-08-24T14:11:59;28.20;99.90
23683;DHT22;24897;53.514;10.482;2023-08-24T14:14:43;28.20;99.90
23683;DHT22;24897;53.514;10.482;2023-08-24T14:17:27;28.00;99.90
23683;DHT22;24897;53.514;10.482;2023-08-24T14:20:12;28.10;99.90
23683;DHT22;24897;53.514;10.482;2023-08-24T14:22:56;28.20;99.90
23683;DHT22;24897;53.514;10.482;2023-08-24T14:25:40;28.30;99.90
23683;DHT22;24897;53.514;10.482;2023-08-24T14:28:24;28.20;99.90
23683;DHT22;24897;53.514;10.482;2023-08-24T14:31:08;28.10;99.90
23683;DHT22;24897;53.514;10.482;2023-08-24T14:33:53;28.20;99.90
23683;DHT22;24897;53.514;10.482;2023-08-24T14:36:37;28.20;99.90
23683;DHT22;24897;53.514;10.482;2023-08-24T14:39:21;28.20;99.90
23683;DHT22;24897;53.514;10.482;2023-08-24T14:42:05;28.10;99.90
23683;DHT22;24897;53.514;10.482;2023-08-24T14:44:49;28.10;99.90
23683;DHT22;24897;53.514;10.482;2023-08-24T14:47:33;28.10;99.90
23683;DHT22;24897;53.514;10.482;2023-08-24T14:50:18;28.10;99.90
23683;DHT22;24897;53.514;10.482;2023-08-24T14:53:02;28.00;99.90
23683;DHT22;24897;53.514;10.482;2023-08-24T14:55:46;28.00;99.90
23683;DHT22;24897;53.514;10.482;2023-08-24T14:58:30;28.00;99.90
23683;DHT22;24897;53.514;10.482;2023-08-24T15:01:14;27.90;99.90
23683;DHT22;24897;53.514;10.482;2023-08-24T15:03:59;27.60;99.90
23683;DHT22;24897;53.514;10.482;2023-08-24T15:06:43;27.30;99.90
23683;DHT22;24897;53.514;10.482;2023-08-24T15:09:27;27.30;99.90
23683;DHT22;24897;53.514;10.482;2023-08-24T15:12:11;27.30;99.90
23683;DHT22;24897;53.514;10.482;2023-08-24T15:15:00;27.30;99.90
23683;DHT22;24897;53.514;10.482;2023-08-24T15:17:45;27.40;99.90
23683;DHT22;24897;53.514;10.482;2023-08-24T15:20:29;27.40;99.90
23683;DHT22;24897;53.514;10.482;2023-08-24T15:23:24;27.40;99.90
23683;DHT22;24897;53.514;10.482;2023-08-24T15:26:09;27.50;99.90
23683;DHT22;24897;53.514;10.482;2023-08-24T15:29:13;27.40;99.90
23683;DHT22;24897;53.514;10.482;2023-08-24T15:32:01;27.40;99.90
23683;DHT22;24897;53.514;10.482;2023-08-24T15:34:46;27.40;99.90
23683;DHT22;24897;53.514;10.482;2023-08-24T15:37:30;27.30;99.90
23683;DHT22;24897;53.514;10.482;2023-08-24T15:40:15;27.30;99.90
23683;DHT22;24897;53.514;10.482;2023-08-24T15:43:01;27.10;99.90
23683;DHT22;24897;53.514;10.482;2023-08-24T15:45:45;27.10;99.90
23683;DHT22;24897;53.514;10.482;2023-08-24T15:48:32;27.00;99.90
23683;DHT22;24897;53.514;10.482;2023-08-24T15:51:16;26.90;99.90
23683;DHT22;24897;53.514;10.482;2023-08-24T15:54:01;27.00;99.90
23683;DHT22;24897;53.514;10.482;2023-08-24T15:56:45;27.00;99.90
23683;DHT22;24897;53.514;10.482;2023-08-24T15:59:30;27.00;99.90
23683;DHT22;24897;53.514;10.482;2023-08-24T16:02:14;26.90;99.90
23683;DHT22;24897;53.514;10.482;2023-08-24T16:04:58;26.90;99.90
23683;DHT22;24897;53.514;10.482;2023-08-24T16:07:42;26.80;99.90
23683;DHT22;24897;53.514;10.482;2023-08-24T16:10:26;26.60;99.90
23683;DHT22;24897;53.514;10.482;2023-08-24T16:13:10;26.60;99.90
23683;DHT22;24897;53.514;10.482;2023-08-24T16:15:54;26.60;99.90
23683;DHT22;24897;53.514;10.482;2023-08-24T16:18:39;26.50;99.90
23683;DHT22;24897;53.514;10.482;2023-08-24T16:21:25;26.50;99.90
23683;DHT22;24897;53.514;10.482;2023-08-24T16:24:09;26.40;99.90
23683;DHT22;24897;53.514;10.482;2023-08-24T16:26:53;26.40;99.90
23683;DHT22;24897;53.514;10.482;2023-08-24T16:29:37;26.40;99.90
23683;DHT22;24897;53.514;10.482;2023-08-24T16:32:22;26.20;99.90
23683;DHT22;24897;53.514;10.482;2023-08-24T16:35:06;26.20;99.90
23683;DHT22;24897;53.514;10.482;2023-08-24T16:37:54;26.10;99.90
23683;DHT22;24897;53.514;10.482;2023-08-24T16:40:38;26.10;99.90
23683;DHT22;24897;53.514;10.482;2023-08-24T16:43:22;26.10;99.90
23683;DHT22;24897;53.514;10.482;2023-08-24T16:46:06;26.20;99.90
23683;DHT22;24897;53.514;10.482;2023-08-24T16:48:50;26.10;99.90
23683;DHT22;24897;53.514;10.482;2023-08-24T16:51:34;26.10;99.90
23683;DHT22;24897;53.514;10.482;2023-08-24T16:54:18;26.10;99.90
23683;DHT22;24897;53.514;10.482;2023-08-24T16:57:02;26.20;99.90
23683;DHT22;24897;53.514;10.482;2023-08-24T16:59:46;26.20;99.90
23683;DHT22;24897;53.514;10.482;2023-08-24T17:02:30;26.10;99.90
23683;DHT22;24897;53.514;10.482;2023-08-24T17:05:14;26.20;99.90
23683;DHT22;24897;53.514;10.482;2023-08-24T17:08:07;26.10;99.90
23683;DHT22;24897;53.514;10.482;2023-08-24T17:10:51;25.90;99.90